Etusivu
METAR-TAF:

METAR-TAF

Lentoasemat :

Algona, Iowa, Yhdysvallat

Leveyspiiri: 43-05N, Pituuspiiri: 094-16W, korkeus merenpinnasta: 372 m

Tämänhetkinen sää

Tämä raportti tehtiin 21 minuuttia sitten, kello 16.35 UTC
Tuuli 9 kn etelästä/kaakosta puuskistuen 14 kn:hen
Lämpötila 4°C
Kosteus 93%
Ilmanpaine 1006 hPa
Näkyvyys: 14.5 km
Hajanaisia pilviä 7500 ft:n korkeudessa

METAR: KAXA 181635Z AUTO 16009G14KT 9SM SCT075 04/03 A2970 RMK A01

Aika: 10:56 (16:56 UTC)


TAF: puuttuu

Säähavainnot ja -ennusteet yli 4000 lentoasemalta (METAR- ja TAF-raportit).

Käytössä olevat sääasemat on merkitty karttaan keltaisilla ja punaisilla pisteillä.

Aseta hiiri pisteen päälle nähdäksesi sääaseman nimen.

Klikkaa sitten nähdäksesi säähavainnot ja -ennusteet.

Kartan vaihtaminen: klikkaa mustalla rastilla varustettuja vihreitä pisteitä, niin voit zoomata sisään; viivalla varustettua vihreää pistettä, niin voit zoomata ulos tai vihreitä nuolia, niin pääset viereisille kartoille.


METAR-TAF: